| time (UTC) | temp C | wind direction | speed KPH | gust KPH | rain 1hr cm | rain 24hr cm | rain mn cm | humidity % | barometer mb |
| 20260504151003 | 22 | 174 | 14.5 | 33.8 | 0.00 | 0.30 | 0.30 | 60 | 1005.4 |
| 20260504150503 | 21 | 164 | 11.3 | 33.8 | 0.00 | 0.30 | 0.30 | 61 | 1005.4 |
| 20260504141003 | 18 | 159 | 9.7 | 16.1 | 0.00 | 0.30 | 0.30 | 75 | 1005.1 |
| 20260504140503 | 18 | 158 | 9.7 | 16.1 | 0.00 | 0.30 | 0.30 | 77 | 1005.0 |
| 20260504130503 | 15 | 172 | 9.7 | 22.5 | 0.03 | 0.30 | 0.30 | 80 | 1004.9 |
| 20260504110503 | 13 | 143 | 1.6 | 9.7 | 0.00 | 0.28 | 0.28 | 88 | 1004.9 |
| 20260504100503 | 13 | 155 | 3.2 | 11.3 | 0.00 | 0.28 | 0.28 | 89 | 1005.8 |
| 20260504082003 | 13 | 299 | 0.0 | 3.2 | 0.03 | 0.28 | 0.28 | 88 | 1007.0 |
| 20260504081524 | 13 | 354 | 0.0 | 3.2 | 0.03 | 0.28 | 0.28 | 87 | 1007.2 |
| 20260504081003 | 13 | 5 | 1.6 | 4.8 | 0.05 | 0.28 | 0.28 | 87 | 1007.1 |
| 20260504080503 | 13 | 140 | 1.6 | 6.4 | 0.08 | 0.28 | 0.28 | 88 | 1006.9 |
| 20260504050503 | 13 | 342 | 0.0 | 3.2 | 0.00 | 0.00 | 0.00 | 80 | 1008.5 |
| 20260504050003 | 13 | 0 | 0.0 | 0.0 | 0.00 | 0.00 | 0.00 | 79 | 1008.2 |
| 20260504045503 | 13 | 0 | 0.0 | 0.0 | 0.00 | 0.00 | 0.00 | 79 | 1008.1 |
| 20260504045003 | 13 | 0 | 0.0 | 0.0 | 0.00 | 0.00 | 0.00 | 79 | 1008.0 |
| 20260504044524 | 13 | 0 | 0.0 | 0.0 | 0.00 | 0.00 | 0.00 | 78 | 1007.7 |
| 20260504044003 | 13 | 0 | 0.0 | 0.0 | 0.00 | 0.00 | 0.00 | 78 | 1007.6 |
| 20260504043503 | 13 | 343 | 0.0 | 1.6 | 0.00 | 0.00 | 0.00 | 78 | 1007.7 |
| 20260504043024 | 13 | 343 | 0.0 | 1.6 | 0.00 | 0.00 | 0.00 | 78 | 1007.6 |
| 20260504042503 | 13 | 343 | 0.0 | 1.6 | 0.00 | 0.00 | 0.00 | 78 | 1007.9 |
| 20260504042024 | 13 | 0 | 0.0 | 0.0 | 0.00 | 0.00 | 0.00 | 78 | 1008.1 |
| 20260504041503 | 13 | 0 | 0.0 | 0.0 | 0.00 | 0.00 | 0.00 | 77 | 1008.1 |
| 20260504041004 | 13 | 0 | 0.0 | 0.0 | 0.00 | 0.00 | 0.00 | 77 | 1008.1 |
| 20260504040503 | 14 | 0 | 0.0 | 0.0 | 0.00 | 0.00 | 0.00 | 76 | 1008.5 |
| 20260504040024 | 14 | 0 | 0.0 | 0.0 | 0.00 | 0.00 | 0.00 | 76 | 1008.3 |
| 20260504035503 | 14 | 0 | 0.0 | 0.0 | 0.00 | 0.00 | 0.00 | 75 | 1008.7 |
| 20260504035003 | 14 | 0 | 0.0 | 0.0 | 0.00 | 0.00 | 0.00 | 75 | 1008.7 |
| 20260504034503 | 14 | 0 | 0.0 | 0.0 | 0.00 | 0.00 | 0.00 | 75 | 1008.7 |
| 20260504034003 | 14 | 343 | 0.0 | 1.6 | 0.00 | 0.00 | 0.00 | 74 | 1008.7 |
| 20260504033504 | 14 | 343 | 0.0 | 1.6 | 0.00 | 0.00 | 0.00 | 73 | 1008.6 |
| 20260504033003 | 15 | 343 | 0.0 | 1.6 | 0.00 | 0.00 | 0.00 | 72 | 1008.7 |
| 20260504032503 | 15 | 0 | 0.0 | 0.0 | 0.00 | 0.00 | 0.00 | 71 | 1009.1 |
| 20260504032003 | 15 | 0 | 0.0 | 0.0 | 0.00 | 0.00 | 0.00 | 70 | 1009.0 |
| 20260504031503 | 15 | 0 | 0.0 | 0.0 | 0.00 | 0.00 | 0.00 | 70 | 1008.9 |
| 20260504031003 | 15 | 0 | 0.0 | 0.0 | 0.00 | 0.00 | 0.00 | 68 | 1008.7 |
| 20260504030503 | 16 | 0 | 0.0 | 0.0 | 0.00 | 0.00 | 0.00 | 67 | 1008.6 |
| 20260504030003 | 16 | 0 | 0.0 | 0.0 | 0.00 | 0.00 | 0.00 | 66 | 1009.0 |
| 20260504025503 | 16 | 0 | 0.0 | 0.0 | 0.00 | 0.00 | 0.00 | 64 | 1008.8 |
| 20260504025003 | 17 | 0 | 0.0 | 0.0 | 0.00 | 0.00 | 0.00 | 62 | 1009.1 |
| 20260504024503 | 17 | 0 | 0.0 | 0.0 | 0.00 | 0.00 | 0.00 | 62 | 1008.9 |
| 20260504024003 | 17 | 0 | 0.0 | 0.0 | 0.00 | 0.00 | 0.00 | 62 | 1008.8 |
| 20260504023524 | 17 | 0 | 0.0 | 0.0 | 0.00 | 0.00 | 0.00 | 61 | 1008.7 |
| 20260504023003 | 17 | 0 | 0.0 | 0.0 | 0.00 | 0.00 | 0.00 | 61 | 1008.7 |
| 20260504022503 | 17 | 0 | 0.0 | 0.0 | 0.00 | 0.00 | 0.00 | 60 | 1008.7 |
| 20260504022003 | 17 | 0 | 0.0 | 1.6 | 0.00 | 0.00 | 0.00 | 60 | 1008.6 |
| 20260504021503 | 18 | 343 | 0.0 | 1.6 | 0.00 | 0.00 | 0.00 | 60 | 1008.5 |
| 20260504021003 | 18 | 343 | 0.0 | 3.2 | 0.00 | 0.00 | 0.00 | 60 | 1008.6 |
| 20260504020503 | 18 | 333 | 1.6 | 3.2 | 0.00 | 0.00 | 0.00 | 59 | 1008.7 |
| 20260504020003 | 18 | 327 | 1.6 | 3.2 | 0.00 | 0.00 | 0.00 | 59 | 1008.7 |
| 20260504015524 | 18 | 323 | 1.6 | 3.2 | 0.00 | 0.00 | 0.00 | 59 | 1008.8 |
| 20260504015003 | 18 | 320 | 1.6 | 3.2 | 0.00 | 0.00 | 0.00 | 58 | 1008.5 |
| 20260504014503 | 18 | 1 | 0.0 | 3.2 | 0.00 | 0.00 | 0.00 | 58 | 1008.5 |
| 20260504014003 | 19 | 18 | 0.0 | 6.4 | 0.00 | 0.00 | 0.00 | 58 | 1008.2 |
| 20260504013503 | 19 | 354 | 1.6 | 6.4 | 0.00 | 0.00 | 0.00 | 58 | 1008.3 |
| 20260504013003 | 19 | 336 | 1.6 | 4.8 | 0.00 | 0.00 | 0.00 | 57 | 1008.8 |
| 20260504012503 | 19 | 334 | 1.6 | 4.8 | 0.00 | 0.00 | 0.00 | 57 | 1008.6 |
| 20260504012003 | 19 | 326 | 1.6 | 4.8 | 0.00 | 0.00 | 0.00 | 57 | 1008.7 |
| 20260504011503 | 20 | 337 | 1.6 | 9.7 | 0.00 | 0.00 | 0.00 | 56 | 1008.5 |
| 20260504011003 | 20 | 338 | 1.6 | 9.7 | 0.00 | 0.00 | 0.00 | 56 | 1008.4 |
| 20260504010503 | 20 | 323 | 1.6 | 4.8 | 0.00 | 0.00 | 0.00 | 56 | 1008.5 |
| 20260504010024 | 20 | 314 | 1.6 | 4.8 | 0.00 | 0.00 | 0.00 | 56 | 1008.6 |
| 20260504005503 | 20 | 313 | 1.6 | 4.8 | 0.00 | 0.00 | 0.00 | 55 | 1008.0 |
| 20260504005004 | 20 | 313 | 1.6 | 3.2 | 0.00 | 0.00 | 0.00 | 54 | 1008.0 |
| 20260504004503 | 21 | 313 | 0.0 | 1.6 | 0.00 | 0.00 | 0.00 | 53 | 1007.7 |
| 20260504004024 | 21 | 313 | 0.0 | 3.2 | 0.00 | 0.00 | 0.00 | 52 | 1008.1 |
| 20260504003503 | 21 | 313 | 0.0 | 3.2 | 0.00 | 0.00 | 0.00 | 52 | 1007.9 |
| 20260504003003 | 21 | 313 | 0.0 | 3.2 | 0.00 | 0.00 | 0.00 | 51 | 1007.9 |
| 20260504002503 | 22 | 313 | 0.0 | 1.6 | 0.00 | 0.00 | 0.00 | 49 | 1008.1 |
| 20260504002003 | 22 | 321 | 0.0 | 3.2 | 0.00 | 0.00 | 0.00 | 49 | 1008.0 |
| 20260504001503 | 22 | 313 | 1.6 | 3.2 | 0.00 | 0.00 | 0.00 | 48 | 1008.0 |
| 20260504001003 | 22 | 302 | 3.2 | 6.4 | 0.00 | 0.00 | 0.00 | 47 | 1008.1 |
| 20260504000503 | 22 | 305 | 3.2 | 6.4 | 0.00 | 0.00 | 0.00 | 47 | 1008.0 |
| 20260504000003 | 22 | 296 | 3.2 | 14.5 | 0.00 | 0.00 | 0.00 | 47 | 1008.2 |
| 20260503235503 | 23 | 299 | 4.8 | 14.5 | 0.00 | 0.00 | 0.00 | 46 | 1008.5 |
| 20260503235003 | 23 | 306 | 4.8 | 14.5 | 0.00 | 0.00 | 0.00 | 46 | 1008.4 |
| 20260503234503 | 23 | 281 | 4.8 | 14.5 | 0.00 | 0.00 | 0.00 | 45 | 1008.3 |
| 20260503234003 | 23 | 281 | 4.8 | 14.5 | 0.00 | 0.00 | 0.00 | 44 | 1008.0 |
| 20260503233503 | 23 | 307 | 4.8 | 14.5 | 0.00 | 0.00 | 0.00 | 45 | 1008.2 |
| 20260503233003 | 23 | 313 | 4.8 | 14.5 | 0.00 | 0.00 | 0.00 | 46 | 1008.3 |
| 20260503232503 | 23 | 293 | 4.8 | 12.9 | 0.00 | 0.00 | 0.00 | 46 | 1008.4 |
| 20260503232003 | 23 | 281 | 4.8 | 12.9 | 0.00 | 0.00 | 0.00 | 45 | 1008.2 |
| 20260503231524 | 23 | 271 | 6.4 | 16.1 | 0.00 | 0.00 | 0.00 | 45 | 1008.2 |
| 20260503231003 | 23 | 289 | 6.4 | 20.9 | 0.00 | 0.00 | 0.00 | 44 | 1008.4 |
| 20260503230524 | 23 | 300 | 6.4 | 20.9 | 0.00 | 0.00 | 0.00 | 44 | 1008.6 |
| 20260503230024 | 23 | 273 | 6.4 | 17.7 | 0.00 | 0.00 | 0.00 | 44 | 1008.5 |
| 20260503225503 | 23 | 263 | 6.4 | 22.5 | 0.00 | 0.00 | 0.00 | 43 | 1007.9 |
| 20260503225024 | 23 | 254 | 8.0 | 24.1 | 0.00 | 0.00 | 0.00 | 43 | 1007.6 |
| 20260503224503 | 23 | 261 | 8.0 | 24.1 | 0.00 | 0.00 | 0.00 | 42 | 1007.9 |
| 20260503224003 | 23 | 298 | 6.4 | 17.7 | 0.00 | 0.00 | 0.00 | 43 | 1008.1 |
| 20260503223503 | 23 | 314 | 6.4 | 17.7 | 0.00 | 0.00 | 0.00 | 43 | 1008.2 |
| 20260503223003 | 23 | 304 | 6.4 | 17.7 | 0.00 | 0.00 | 0.00 | 43 | 1008.5 |
| 20260503222503 | 23 | 276 | 6.4 | 24.1 | 0.00 | 0.00 | 0.00 | 42 | 1008.3 |
| 20260503222003 | 23 | 252 | 6.4 | 24.1 | 0.00 | 0.00 | 0.00 | 42 | 1008.1 |
| 20260503221525 | 23 | 253 | 6.4 | 25.7 | 0.00 | 0.00 | 0.00 | 42 | 1008.1 |
| 20260503221003 | 23 | 259 | 6.4 | 25.7 | 0.00 | 0.00 | 0.00 | 42 | 1008.2 |
| 20260503220503 | 23 | 247 | 9.7 | 30.6 | 0.00 | 0.00 | 0.00 | 41 | 1008.7 |
| 20260503220024 | 24 | 244 | 9.7 | 30.6 | 0.00 | 0.00 | 0.00 | 39 | 1008.5 |
| 20260503215503 | 24 | 239 | 9.7 | 37.0 | 0.00 | 0.00 | 0.00 | 38 | 1008.4 |
| 20260503215003 | 24 | 245 | 9.7 | 37.0 | 0.00 | 0.00 | 0.00 | 40 | 1008.4 |
| 20260503214503 | 24 | 244 | 9.7 | 37.0 | 0.00 | 0.00 | 0.00 | 39 | 1008.6 |
| 20260503214003 | 24 | 227 | 8.0 | 24.1 | 0.00 | 0.00 | 0.00 | 38 | 1008.7 |
| 20260503213503 | 24 | 236 | 11.3 | 30.6 | 0.00 | 0.00 | 0.00 | 40 | 1008.9 |
| 20260503213003 | 24 | 233 | 11.3 | 30.6 | 0.00 | 0.00 | 0.00 | 38 | 1008.7 |
| 20260503212503 | 24 | 232 | 9.7 | 30.6 | 0.00 | 0.00 | 0.00 | 38 | 1008.9 |
| 20260503212024 | 24 | 235 | 8.0 | 30.6 | 0.00 | 0.00 | 0.00 | 39 | 1008.7 |
| 20260503211503 | 24 | 213 | 9.7 | 30.6 | 0.00 | 0.00 | 0.00 | 39 | 1008.8 |
| 20260503211003 | 24 | 221 | 9.7 | 27.4 | 0.00 | 0.00 | 0.00 | 40 | 1008.7 |
| 20260503210503 | 24 | 240 | 8.0 | 22.5 | 0.00 | 0.00 | 0.00 | 39 | 1009.0 |
| 20260503210024 | 24 | 212 | 9.7 | 25.7 | 0.00 | 0.00 | 0.00 | 40 | 1009.3 |
| 20260503205503 | 23 | 182 | 11.3 | 27.4 | 0.00 | 0.00 | 0.00 | 39 | 1009.1 |
| 20260503205003 | 23 | 173 | 11.3 | 27.4 | 0.00 | 0.00 | 0.00 | 40 | 1009.3 |
| 20260503204503 | 23 | 178 | 11.3 | 37.0 | 0.00 | 0.00 | 0.00 | 40 | 1009.1 |
| 20260503204003 | 23 | 182 | 11.3 | 37.0 | 0.00 | 0.00 | 0.00 | 39 | 1009.1 |
| 20260503203503 | 23 | 197 | 9.7 | 37.0 | 0.00 | 0.00 | 0.00 | 38 | 1009.2 |
| 20260503203003 | 24 | 211 | 9.7 | 25.7 | 0.00 | 0.00 | 0.00 | 36 | 1009.8 |
| 20260503202503 | 24 | 214 | 8.0 | 22.5 | 0.00 | 0.00 | 0.00 | 39 | 1009.6 |
| 20260503202024 | 24 | 222 | 9.7 | 22.5 | 0.00 | 0.00 | 0.00 | 37 | 1009.7 |
| 20260503201503 | 24 | 203 | 9.7 | 25.7 | 0.00 | 0.00 | 0.00 | 39 | 1009.6 |
| 20260503201003 | 23 | 182 | 9.7 | 25.7 | 0.00 | 0.00 | 0.00 | 40 | 1009.8 |
| 20260503200503 | 23 | 191 | 9.7 | 25.7 | 0.00 | 0.00 | 0.00 | 39 | 1009.9 |
| 20260503200024 | 23 | 219 | 8.0 | 25.7 | 0.00 | 0.00 | 0.00 | 39 | 1010.1 |
| 20260503195503 | 23 | 189 | 11.3 | 27.4 | 0.00 | 0.00 | 0.00 | 38 | 1010.1 |
| 20260503195024 | 23 | 166 | 12.9 | 29.0 | 0.00 | 0.00 | 0.00 | 41 | 1010.1 |
| 20260503194503 | 22 | 187 | 9.7 | 29.0 | 0.00 | 0.00 | 0.00 | 42 | 1010.4 |
| 20260503194003 | 22 | 182 | 9.7 | 29.0 | 0.00 | 0.00 | 0.00 | 41 | 1010.4 |
| 20260503193524 | 22 | 169 | 12.9 | 29.0 | 0.00 | 0.00 | 0.00 | 39 | 1010.5 |
| 20260503193003 | 22 | 168 | 12.9 | 30.6 | 0.00 | 0.00 | 0.00 | 41 | 1010.2 |
| 20260503192503 | 22 | 166 | 12.9 | 30.6 | 0.00 | 0.00 | 0.00 | 41 | 1010.6 |
| 20260503192003 | 21 | 166 | 12.9 | 35.4 | 0.00 | 0.00 | 0.00 | 42 | 1010.4 |
| 20260503191503 | 21 | 166 | 12.9 | 35.4 | 0.00 | 0.00 | 0.00 | 41 | 1010.6 |
| 20260503191003 | 21 | 169 | 14.5 | 38.6 | 0.00 | 0.00 | 0.00 | 41 | 1010.7 |
| 20260503190503 | 21 | 169 | 14.5 | 38.6 | 0.00 | 0.00 | 0.00 | 42 | 1010.8 |
| 20260503190003 | 21 | 174 | 14.5 | 35.4 | 0.00 | 0.00 | 0.00 | 41 | 1011.0 |
| 20260503185503 | 21 | 174 | 16.1 | 35.4 | 0.00 | 0.00 | 0.00 | 41 | 1011.1 |
| 20260503185003 | 20 | 172 | 12.9 | 30.6 | 0.00 | 0.00 | 0.00 | 43 | 1011.3 |
| 20260503184503 | 20 | 173 | 9.7 | 24.1 | 0.00 | 0.00 | 0.00 | 45 | 1011.4 |
| 20260503184003 | 20 | 176 | 11.3 | 27.4 | 0.00 | 0.00 | 0.00 | 44 | 1011.2 |
| 20260503183503 | 20 | 180 | 12.9 | 27.4 | 0.00 | 0.00 | 0.00 | 44 | 1011.2 |
| 20260503183004 | 20 | 177 | 12.9 | 33.8 | 0.00 | 0.00 | 0.00 | 43 | 1011.4 |
| 20260503182503 | 20 | 173 | 14.5 | 33.8 | 0.00 | 0.00 | 0.00 | 42 | 1011.1 |
| 20260503182003 | 20 | 167 | 16.1 | 30.6 | 0.00 | 0.00 | 0.00 | 40 | 1011.1 |
| 20260503181504 | 20 | 167 | 16.1 | 30.6 | 0.00 | 0.00 | 0.00 | 40 | 1011.0 |
| 20260503181003 | 20 | 164 | 14.5 | 35.4 | 0.00 | 0.00 | 0.00 | 41 | 1010.8 |
| 20260503180503 | 20 | 158 | 17.7 | 35.4 | 0.00 | 0.00 | 0.00 | 39 | 1011.2 |
| 20260503180004 | 20 | 170 | 16.1 | 33.8 | 0.00 | 0.00 | 0.00 | 41 | 1011.4 |
| 20260503175503 | 20 | 182 | 14.5 | 35.4 | 0.00 | 0.00 | 0.00 | 42 | 1011.5 |
| 20260503175003 | 20 | 171 | 17.7 | 40.2 | 0.00 | 0.00 | 0.00 | 42 | 1012.1 |
| 20260503174524 | 20 | 164 | 19.3 | 40.2 | 0.00 | 0.00 | 0.00 | 41 | 1012.2 |
| 20260503174003 | 20 | 163 | 16.1 | 35.4 | 0.00 | 0.00 | 0.00 | 41 | 1012.3 |
| 20260503173504 | 20 | 162 | 12.9 | 27.4 | 0.00 | 0.00 | 0.00 | 45 | 1012.4 |
| 20260503173024 | 19 | 162 | 16.1 | 33.8 | 0.00 | 0.00 | 0.00 | 44 | 1012.9 |
| 20260503172504 | 19 | 165 | 16.1 | 33.8 | 0.00 | 0.00 | 0.00 | 44 | 1012.9 |
| 20260503172003 | 19 | 168 | 14.5 | 33.8 | 0.00 | 0.00 | 0.00 | 42 | 1013.0 |
| 20260503171503 | 19 | 164 | 14.5 | 33.8 | 0.00 | 0.00 | 0.00 | 44 | 1013.1 |
| 20260503171003 | 19 | 168 | 14.5 | 35.4 | 0.00 | 0.00 | 0.00 | 43 | 1013.4 |
| 20260503170503 | 19 | 177 | 14.5 | 35.4 | 0.00 | 0.00 | 0.00 | 41 | 1013.6 |